createdAt,value
2023-03-08T00:01:04.067Z,2.35
2023-03-08T00:03:33.664Z,2.47
2023-03-08T00:06:05.527Z,2.13
2023-03-08T00:08:33.857Z,2.28
2023-03-08T00:11:02.132Z,2.28
2023-03-08T00:13:30.452Z,2.38
2023-03-08T00:16:00.503Z,1.65
2023-03-08T00:18:28.868Z,2.20
2023-03-08T00:21:02.520Z,2.20
2023-03-08T00:23:30.888Z,1.80
2023-03-08T00:25:59.436Z,2.05
2023-03-08T00:28:27.741Z,2.17
2023-03-08T00:30:59.568Z,1.90
2023-03-08T00:33:28.094Z,1.95
2023-03-08T00:35:57.263Z,1.80
2023-03-08T00:38:27.474Z,1.60
2023-03-08T00:40:55.757Z,1.85
2023-03-08T00:43:24.004Z,1.60
2023-03-08T00:45:53.267Z,2.20
2023-03-08T00:48:23.206Z,2.28
2023-03-08T00:50:53.593Z,2.10
2023-03-08T00:53:22.047Z,2.78
2023-03-08T00:55:52.410Z,1.92
2023-03-08T00:58:20.929Z,3.25
2023-03-08T01:00:49.448Z,2.33
2023-03-08T01:03:18.813Z,2.25
2023-03-08T01:05:47.657Z,2.22
2023-03-08T01:08:16.670Z,2.17
2023-03-08T01:10:48.468Z,2.17
2023-03-08T01:13:19.447Z,2.05
2023-03-08T01:15:48.113Z,2.03
2023-03-08T01:18:16.509Z,3.08
2023-03-08T01:20:45.163Z,2.00
2023-03-08T01:23:14.694Z,1.70
2023-03-08T01:25:43.253Z,2.33
2023-03-08T01:28:11.562Z,2.35
2023-03-08T01:30:41.844Z,2.53
2023-03-08T01:33:10.165Z,2.50
2023-03-08T01:35:39.507Z,2.10
2023-03-08T01:38:07.843Z,2.17
2023-03-08T01:40:36.342Z,2.38
2023-03-08T01:43:12.910Z,2.13
2023-03-08T01:46:12.653Z,2.38
2023-03-08T01:48:44.014Z,2.47
2023-03-08T01:51:19.860Z,2.53
2023-03-08T01:53:48.421Z,2.25
2023-03-08T01:56:18.115Z,2.90
2023-03-08T01:58:47.753Z,2.47
2023-03-08T02:01:17.517Z,2.65
2023-03-08T02:03:47.034Z,2.80
2023-03-08T02:06:17.979Z,2.78
2023-03-08T02:08:46.702Z,2.88
2023-03-08T02:11:15.818Z,2.53
2023-03-08T02:13:44.533Z,3.35
2023-03-08T02:16:14.378Z,2.72
2023-03-08T02:18:57.856Z,2.97
2023-03-08T02:21:26.620Z,3.45
2023-03-08T02:23:56.641Z,3.00
2023-03-08T02:26:25.119Z,2.78
2023-03-08T02:28:53.431Z,2.50
2023-03-08T02:31:22.955Z,3.15
2023-03-08T02:33:51.279Z,2.50
2023-03-08T02:36:19.648Z,2.80
2023-03-08T02:38:47.940Z,3.03
2023-03-08T02:41:17.635Z,3.20
2023-03-08T02:43:45.940Z,3.03
2023-03-08T02:46:14.583Z,3.17
2023-03-08T02:48:42.902Z,3.20
2023-03-08T02:51:11.208Z,3.38
2023-03-08T02:53:39.514Z,2.83
2023-03-08T02:56:07.988Z,3.50
2023-03-08T02:58:37.638Z,2.58
2023-03-08T03:01:05.943Z,3.38
2023-03-08T03:03:34.269Z,3.05
2023-03-08T03:06:02.615Z,3.45
2023-03-08T03:08:33.772Z,3.35
2023-03-08T03:11:02.181Z,3.13
2023-03-08T03:13:30.419Z,3.10
2023-03-08T03:16:00.459Z,3.20
2023-03-08T03:18:28.818Z,2.88
2023-03-08T03:20:57.093Z,2.88
2023-03-08T03:23:25.435Z,2.75
2023-03-08T03:25:55.250Z,3.60
2023-03-08T03:28:23.956Z,2.95
2023-03-08T03:30:52.801Z,3.20
2023-03-08T03:33:22.464Z,3.20
2023-03-08T03:35:50.875Z,3.50
2023-03-08T03:38:19.896Z,3.15
2023-03-08T03:40:48.159Z,3.72
2023-03-08T03:43:17.260Z,3.55
2023-03-08T03:45:45.812Z,3.60
2023-03-08T03:48:17.100Z,3.10
2023-03-08T03:50:55.109Z,3.60
2023-03-08T03:53:23.527Z,2.78
2023-03-08T03:55:53.811Z,3.08
2023-03-08T03:58:22.250Z,2.75
2023-03-08T04:00:51.650Z,3.75
2023-03-08T04:03:29.213Z,3.85
2023-03-08T04:06:06.600Z,3.00
2023-03-08T04:08:35.279Z,3.28
2023-03-08T04:11:03.666Z,3.15
2023-03-08T04:13:32.230Z,3.38
2023-03-08T04:16:00.689Z,3.72
2023-03-08T04:18:29.156Z,3.90
2023-03-08T04:20:59.032Z,3.75
2023-03-08T04:23:27.609Z,4.03
2023-03-08T04:25:55.896Z,4.63
2023-03-08T04:28:24.214Z,5.15
2023-03-08T04:30:52.570Z,6.38
2023-03-08T04:33:21.488Z,5.75
2023-03-08T04:35:52.377Z,5.95
2023-03-08T04:38:25.210Z,5.03
2023-03-08T04:41:11.868Z,6.03
2023-03-08T04:43:58.268Z,5.95
2023-03-08T04:46:36.381Z,5.60
2023-03-08T04:49:05.566Z,5.97
2023-03-08T04:51:40.031Z,5.18
2023-03-08T04:54:11.498Z,6.05
2023-03-08T04:56:45.594Z,6.43
2023-03-08T04:59:15.629Z,6.97
2023-03-08T05:01:44.108Z,6.63
2023-03-08T05:04:13.147Z,6.75
2023-03-08T05:06:43.198Z,6.65
2023-03-08T05:09:16.437Z,6.13
2023-03-08T05:11:46.831Z,6.45
2023-03-08T05:14:17.069Z,6.45
2023-03-08T05:16:45.609Z,6.80
2023-03-08T05:19:14.206Z,6.72
2023-03-08T05:21:50.513Z,7.50
2023-03-08T05:24:20.336Z,7.75
2023-03-08T05:26:49.756Z,7.70
2023-03-08T05:29:19.865Z,7.50
2023-03-08T05:31:48.482Z,7.32
2023-03-08T05:34:17.232Z,6.97
2023-03-08T05:36:48.671Z,6.75
2023-03-08T05:39:17.104Z,7.15
2023-03-08T05:41:54.594Z,7.22
2023-03-08T05:44:29.046Z,7.97
2023-03-08T05:46:59.554Z,8.20
2023-03-08T05:49:28.438Z,7.90
2023-03-08T14:39:40.193Z,7.35
2023-03-08T14:42:20.524Z,8.45
2023-03-08T14:47:59.017Z,7.57
2023-03-08T14:50:30.474Z,7.40
2023-03-08T14:52:59.887Z,7.85
2023-03-08T14:55:30.594Z,8.77
2023-03-08T14:58:00.147Z,8.63
2023-03-08T15:00:29.178Z,8.93
2023-03-08T15:02:57.899Z,8.70
2023-03-08T15:05:29.648Z,9.43
2023-03-08T15:07:59.317Z,9.50
2023-03-08T15:10:29.100Z,9.40
2023-03-08T15:12:58.828Z,9.50
2023-03-08T15:15:27.576Z,8.77
2023-03-08T15:17:55.806Z,8.60
2023-03-08T15:20:24.891Z,8.38
2023-03-08T15:22:54.214Z,9.02
2023-03-08T15:25:24.481Z,9.65
2023-03-08T15:27:53.512Z,10.07
2023-03-08T15:30:27.299Z,9.43
2023-03-08T15:32:59.598Z,9.30
2023-03-08T15:35:28.192Z,9.18
2023-03-08T15:37:56.596Z,9.02
2023-03-08T15:40:25.890Z,9.20
2023-03-08T15:42:54.445Z,9.23
2023-03-08T15:45:24.524Z,9.32
2023-03-08T15:47:59.524Z,9.02
2023-03-08T15:50:28.275Z,9.98
2023-03-08T15:52:56.870Z,9.88
2023-03-08T15:55:26.000Z,9.18
2023-03-08T15:57:54.429Z,9.60
2023-03-08T16:00:26.333Z,10.00
2023-03-08T16:02:55.318Z,10.07
2023-03-08T16:05:25.358Z,9.45
2023-03-08T16:07:57.714Z,9.88
2023-03-08T16:10:26.561Z,9.43
2023-03-08T16:12:55.454Z,10.18
2023-03-08T16:15:25.122Z,9.13
2023-03-08T16:17:53.407Z,10.95
2023-03-08T16:20:23.287Z,10.13
2023-03-08T16:22:51.664Z,10.20
2023-03-08T16:25:22.304Z,11.00
2023-03-08T16:27:51.508Z,10.95
2023-03-08T16:30:20.118Z,11.10
2023-03-08T16:32:49.747Z,11.65
2023-03-08T16:35:18.040Z,10.88
2023-03-08T16:37:46.360Z,10.45
2023-03-08T16:40:15.479Z,11.48
2023-03-08T16:42:43.798Z,12.38
2023-03-08T16:45:12.393Z,12.30
2023-03-08T16:47:40.653Z,12.60
2023-03-08T16:50:11.729Z,12.00
2023-03-08T16:52:40.045Z,12.35
2023-03-08T16:55:09.182Z,14.13
2023-03-08T16:57:38.589Z,13.75
2023-03-08T17:00:09.168Z,13.23
2023-03-08T17:02:40.296Z,12.10
2023-03-08T17:05:19.668Z,13.75
2023-03-08T17:07:50.183Z,13.13
2023-03-08T17:10:18.790Z,12.25
2023-03-08T17:12:47.057Z,13.75
2023-03-08T17:15:15.359Z,13.80
2023-03-08T17:17:43.859Z,13.50
2023-03-08T17:20:14.871Z,12.93
2023-03-08T17:22:43.257Z,13.52
2023-03-08T17:25:11.592Z,14.02
2023-03-08T17:27:39.853Z,13.02
2023-03-08T17:30:13.980Z,14.70
2023-03-08T17:32:42.711Z,13.38
2023-03-08T17:35:13.864Z,13.80
2023-03-08T17:37:42.336Z,13.13
2023-03-08T17:40:11.635Z,12.90
2023-03-08T17:42:43.360Z,12.82
2023-03-08T17:45:12.025Z,11.30
2023-03-08T17:47:40.312Z,12.10
2023-03-08T17:50:09.238Z,11.45
2023-03-08T17:52:38.971Z,11.98
2023-03-08T17:55:07.699Z,11.60
2023-03-08T17:57:36.834Z,10.75
2023-03-08T18:00:06.409Z,10.45
2023-03-08T18:02:36.602Z,9.77
2023-03-08T18:05:08.413Z,10.15
2023-03-08T18:07:42.442Z,9.30
2023-03-08T18:10:11.841Z,9.52
2023-03-08T18:12:40.199Z,9.63
2023-03-08T18:15:09.246Z,9.00
2023-03-08T18:17:39.737Z,8.43
2023-03-08T18:20:09.610Z,6.95
2023-03-08T18:22:44.867Z,6.43
2023-03-08T18:25:13.144Z,7.47
2023-03-08T18:27:41.423Z,7.57
2023-03-08T18:30:10.639Z,8.40
2023-03-08T18:32:39.165Z,8.15
2023-03-08T18:35:08.201Z,9.93
2023-03-08T18:37:36.904Z,9.05
2023-03-08T18:40:11.777Z,11.38
2023-03-08T18:42:41.420Z,9.00
2023-03-08T18:45:10.370Z,8.95
2023-03-08T18:47:38.917Z,10.43
2023-03-08T18:50:08.243Z,9.55
2023-03-08T18:52:36.558Z,10.18
2023-03-08T18:55:05.014Z,9.43
2023-03-08T18:57:34.659Z,9.77
2023-03-08T19:00:05.256Z,9.27
2023-03-08T19:02:34.198Z,10.38
2023-03-08T19:05:06.389Z,9.80
2023-03-08T19:07:36.161Z,9.75
2023-03-08T19:10:04.468Z,9.77
2023-03-08T19:12:33.647Z,10.27
2023-03-08T19:15:03.360Z,9.20
2023-03-08T19:17:31.609Z,10.70
2023-03-08T19:19:59.908Z,10.27
2023-03-08T19:22:28.188Z,9.85
2023-03-08T19:24:56.569Z,9.63
2023-03-08T19:27:24.851Z,10.05
2023-03-08T19:29:53.247Z,9.60
2023-03-08T19:32:23.015Z,9.48
2023-03-08T19:34:51.391Z,8.77
2023-03-08T19:37:19.775Z,9.52
2023-03-08T19:39:49.185Z,9.43
2023-03-08T19:42:18.103Z,9.93
2023-03-08T19:44:48.381Z,9.32
2023-03-08T19:47:16.948Z,9.82
2023-03-08T19:49:46.863Z,9.90
2023-03-08T19:52:15.158Z,10.30
2023-03-08T19:54:44.325Z,9.45
2023-03-08T19:57:13.507Z,10.63
2023-03-08T19:59:41.944Z,10.43
2023-03-08T20:02:15.134Z,11.85
2023-03-08T20:04:48.365Z,10.27
2023-03-08T20:07:18.453Z,11.48
2023-03-08T20:09:46.852Z,11.45
2023-03-08T20:12:15.151Z,11.02
2023-03-08T20:14:43.747Z,11.52
2023-03-08T20:17:12.132Z,11.88
2023-03-08T20:19:40.374Z,11.95
2023-03-08T20:22:10.608Z,11.40
2023-03-08T20:24:38.921Z,11.43
2023-03-08T20:27:07.372Z,11.40
2023-03-08T20:29:35.764Z,11.05
2023-03-08T20:32:04.060Z,11.05
2023-03-08T20:34:32.587Z,11.27
2023-03-08T20:37:00.820Z,12.32
2023-03-08T20:39:30.498Z,11.18
2023-03-08T20:41:58.884Z,11.65
2023-03-08T20:44:27.311Z,12.10
2023-03-08T20:46:55.635Z,12.18
2023-03-08T20:49:26.183Z,11.55
2023-03-08T20:51:54.461Z,11.82
2023-03-08T20:54:22.876Z,11.18
2023-03-08T20:56:52.513Z,11.40
2023-03-08T20:59:26.820Z,11.02
2023-03-08T21:01:55.598Z,13.02
2023-03-08T21:04:24.183Z,14.88
2023-03-08T21:06:53.031Z,14.10
2023-03-08T21:09:22.205Z,14.70
2023-03-08T21:11:51.047Z,13.57
2023-03-08T21:14:20.819Z,13.30
2023-03-08T21:16:49.213Z,12.55
2023-03-08T21:19:18.485Z,14.60
2023-03-08T21:21:47.154Z,19.77
2023-03-08T21:24:16.636Z,15.38
2023-03-08T21:26:45.735Z,15.52
2023-03-08T21:29:15.223Z,15.52
2023-03-08T21:31:45.377Z,14.45
2023-03-08T21:34:14.644Z,12.57
2023-03-08T21:36:43.323Z,10.73
2023-03-08T21:39:12.060Z,11.05
2023-03-08T21:41:41.192Z,11.00
2023-03-08T21:44:11.316Z,11.27
2023-03-08T21:46:40.098Z,12.13
2023-03-08T21:49:12.703Z,12.35
2023-03-08T21:51:40.952Z,11.85
2023-03-08T21:54:09.266Z,12.25
2023-03-08T21:56:37.588Z,12.27
2023-03-08T21:59:05.872Z,11.50
2023-03-08T22:01:34.627Z,14.20
2023-03-08T22:04:04.036Z,14.88
2023-03-08T22:06:34.094Z,14.05
2023-03-08T22:09:03.739Z,13.07
2023-03-08T22:11:32.393Z,13.60
2023-03-08T22:14:01.952Z,13.82
2023-03-08T22:16:31.502Z,13.70
2023-03-08T22:19:00.799Z,14.30
2023-03-08T22:21:29.708Z,14.10
2023-03-08T22:24:00.460Z,15.02
2023-03-08T22:26:29.496Z,14.30
2023-03-08T22:28:57.869Z,13.82
2023-03-08T22:31:26.997Z,13.77
2023-03-08T22:33:55.516Z,13.82
2023-03-08T22:36:24.027Z,13.07
2023-03-08T22:38:52.356Z,12.65
2023-03-08T22:41:23.708Z,11.75
2023-03-08T22:43:52.389Z,13.30
2023-03-08T22:46:21.442Z,14.30
2023-03-08T22:48:50.089Z,13.55
2023-03-08T22:51:19.723Z,13.20
2023-03-08T22:53:48.267Z,13.43
2023-03-08T22:56:19.093Z,11.23
2023-03-08T22:58:48.780Z,8.23
2023-03-08T23:01:17.753Z,7.53
2023-03-08T23:03:46.152Z,7.90
2023-03-08T23:06:14.521Z,8.43
2023-03-08T23:08:42.854Z,8.35
2023-03-08T23:11:11.909Z,8.82
2023-03-08T23:13:41.091Z,8.55
2023-03-08T23:16:13.592Z,7.55
2023-03-08T23:18:41.944Z,5.07
2023-03-08T23:21:11.067Z,4.35
2023-03-08T23:23:39.668Z,4.32
2023-03-08T23:26:09.194Z,4.45
2023-03-08T23:28:37.995Z,4.53
2023-03-08T23:31:13.254Z,5.05
2023-03-08T23:33:41.940Z,4.40
2023-03-08T23:36:11.171Z,4.00
2023-03-08T23:38:39.500Z,4.40
2023-03-08T23:41:08.584Z,4.70
2023-03-08T23:43:37.395Z,4.80
2023-03-08T23:46:07.492Z,5.10
2023-03-08T23:48:37.579Z,4.80
2023-03-08T23:51:06.476Z,5.20
2023-03-08T23:53:34.955Z,5.43
2023-03-08T23:56:03.733Z,5.13
2023-03-08T23:58:32.279Z,5.55
